sensor_id;sensor_type;location;lat;lon;timestamp;P1;durP1;ratioP1;P2;durP2;ratioP2
40983;SDS011;26714;51.332;12.406;2023-06-14T00:00:14;8.77;;;1.90;;
40983;SDS011;26714;51.332;12.406;2023-06-14T00:02:40;4.75;;;2.00;;
40983;SDS011;26714;51.332;12.406;2023-06-14T00:05:06;4.07;;;1.80;;
40983;SDS011;26714;51.332;12.406;2023-06-14T00:07:36;5.63;;;1.70;;
40983;SDS011;26714;51.332;12.406;2023-06-14T00:10:02;3.17;;;1.48;;
40983;SDS011;26714;51.332;12.406;2023-06-14T00:12:28;4.65;;;1.95;;
40983;SDS011;26714;51.332;12.406;2023-06-14T00:14:54;3.67;;;1.60;;
40983;SDS011;26714;51.332;12.406;2023-06-14T00:17:20;4.13;;;1.77;;
40983;SDS011;26714;51.332;12.406;2023-06-14T00:19:46;3.40;;;1.60;;
40983;SDS011;26714;51.332;12.406;2023-06-14T00:22:11;6.55;;;1.80;;
40983;SDS011;26714;51.332;12.406;2023-06-14T00:24:37;3.75;;;1.80;;
40983;SDS011;26714;51.332;12.406;2023-06-14T00:27:03;5.20;;;1.50;;
40983;SDS011;26714;51.332;12.406;2023-06-14T00:29:28;5.70;;;1.83;;
40983;SDS011;26714;51.332;12.406;2023-06-14T00:31:54;8.35;;;1.52;;
40983;SDS011;26714;51.332;12.406;2023-06-14T00:34:19;6.15;;;1.92;;
40983;SDS011;26714;51.332;12.406;2023-06-14T00:36:45;9.80;;;1.70;;
40983;SDS011;26714;51.332;12.406;2023-06-14T00:39:13;6.13;;;2.13;;
40983;SDS011;26714;51.332;12.406;2023-06-14T00:41:39;7.38;;;2.10;;
40983;SDS011;26714;51.332;12.406;2023-06-14T00:44:05;3.75;;;1.70;;
40983;SDS011;26714;51.332;12.406;2023-06-14T00:46:30;3.22;;;1.80;;
40983;SDS011;26714;51.332;12.406;2023-06-14T00:48:56;3.65;;;1.58;;
40983;SDS011;26714;51.332;12.406;2023-06-14T00:51:23;7.05;;;2.15;;
40983;SDS011;26714;51.332;12.406;2023-06-14T00:53:50;5.85;;;1.80;;
40983;SDS011;26714;51.332;12.406;2023-06-14T00:56:16;6.13;;;1.90;;
40983;SDS011;26714;51.332;12.406;2023-06-14T00:58:41;8.98;;;2.17;;
40983;SDS011;26714;51.332;12.406;2023-06-14T01:01:07;7.57;;;1.80;;
40983;SDS011;26714;51.332;12.406;2023-06-14T01:03:33;5.15;;;1.90;;
40983;SDS011;26714;51.332;12.406;2023-06-14T01:06:01;5.28;;;2.45;;
40983;SDS011;26714;51.332;12.406;2023-06-14T01:08:50;4.57;;;1.98;;
40983;SDS011;26714;51.332;12.406;2023-06-14T01:11:22;4.05;;;1.63;;
40983;SDS011;26714;51.332;12.406;2023-06-14T01:13:48;3.47;;;1.80;;
40983;SDS011;26714;51.332;12.406;2023-06-14T01:16:15;4.97;;;1.90;;
40983;SDS011;26714;51.332;12.406;2023-06-14T01:18:42;7.32;;;1.85;;
40983;SDS011;26714;51.332;12.406;2023-06-14T01:21:20;3.83;;;1.75;;
40983;SDS011;26714;51.332;12.406;2023-06-14T01:23:48;5.80;;;2.03;;
40983;SDS011;26714;51.332;12.406;2023-06-14T01:26:19;4.45;;;1.80;;
40983;SDS011;26714;51.332;12.406;2023-06-14T01:28:45;4.55;;;1.80;;
40983;SDS011;26714;51.332;12.406;2023-06-14T01:31:16;7.43;;;2.08;;
40983;SDS011;26714;51.332;12.406;2023-06-14T01:33:42;6.28;;;1.92;;
40983;SDS011;26714;51.332;12.406;2023-06-14T01:36:08;3.30;;;2.20;;
40983;SDS011;26714;51.332;12.406;2023-06-14T01:38:34;4.05;;;1.92;;
40983;SDS011;26714;51.332;12.406;2023-06-14T01:41:01;5.13;;;2.13;;
40983;SDS011;26714;51.332;12.406;2023-06-14T01:43:27;5.85;;;1.73;;
40983;SDS011;26714;51.332;12.406;2023-06-14T01:45:54;5.05;;;2.10;;
40983;SDS011;26714;51.332;12.406;2023-06-14T01:48:21;4.07;;;2.00;;
40983;SDS011;26714;51.332;12.406;2023-06-14T01:50:48;6.30;;;2.00;;
40983;SDS011;26714;51.332;12.406;2023-06-14T01:53:14;3.95;;;2.22;;
40983;SDS011;26714;51.332;12.406;2023-06-14T01:55:39;6.13;;;1.98;;
40983;SDS011;26714;51.332;12.406;2023-06-14T02:00:33;4.00;;;1.95;;
40983;SDS011;26714;51.332;12.406;2023-06-14T02:03:00;6.82;;;2.03;;
40983;SDS011;26714;51.332;12.406;2023-06-14T02:05:26;4.32;;;2.00;;
40983;SDS011;26714;51.332;12.406;2023-06-14T02:07:52;4.85;;;2.20;;
40983;SDS011;26714;51.332;12.406;2023-06-14T02:10:18;4.10;;;2.13;;
40983;SDS011;26714;51.332;12.406;2023-06-14T02:12:44;3.28;;;1.98;;
40983;SDS011;26714;51.332;12.406;2023-06-14T02:15:09;4.22;;;2.38;;
40983;SDS011;26714;51.332;12.406;2023-06-14T02:17:45;7.38;;;2.33;;
40983;SDS011;26714;51.332;12.406;2023-06-14T02:20:12;5.22;;;2.13;;
40983;SDS011;26714;51.332;12.406;2023-06-14T02:22:38;8.60;;;2.08;;
40983;SDS011;26714;51.332;12.406;2023-06-14T02:25:06;6.57;;;1.70;;
40983;SDS011;26714;51.332;12.406;2023-06-14T02:27:34;3.58;;;1.95;;
40983;SDS011;26714;51.332;12.406;2023-06-14T02:29:59;6.13;;;2.00;;
40983;SDS011;26714;51.332;12.406;2023-06-14T02:32:25;3.10;;;1.80;;
40983;SDS011;26714;51.332;12.406;2023-06-14T02:34:52;3.13;;;1.60;;
40983;SDS011;26714;51.332;12.406;2023-06-14T02:37:18;4.57;;;1.90;;
40983;SDS011;26714;51.332;12.406;2023-06-14T02:39:45;3.38;;;1.70;;
40983;SDS011;26714;51.332;12.406;2023-06-14T02:42:11;4.95;;;1.75;;
40983;SDS011;26714;51.332;12.406;2023-06-14T02:44:36;5.47;;;2.70;;
40983;SDS011;26714;51.332;12.406;2023-06-14T02:47:02;6.43;;;2.05;;
40983;SDS011;26714;51.332;12.406;2023-06-14T02:49:28;3.90;;;1.90;;
40983;SDS011;26714;51.332;12.406;2023-06-14T02:51:54;3.22;;;1.83;;
40983;SDS011;26714;51.332;12.406;2023-06-14T02:54:19;8.45;;;1.75;;
40983;SDS011;26714;51.332;12.406;2023-06-14T02:56:45;5.32;;;2.00;;
40983;SDS011;26714;51.332;12.406;2023-06-14T02:59:11;4.90;;;1.90;;
40983;SDS011;26714;51.332;12.406;2023-06-14T03:01:37;5.63;;;2.00;;
40983;SDS011;26714;51.332;12.406;2023-06-14T03:04:07;4.55;;;2.30;;
40983;SDS011;26714;51.332;12.406;2023-06-14T03:06:35;4.05;;;1.88;;
40983;SDS011;26714;51.332;12.406;2023-06-14T03:09:01;3.50;;;1.90;;
40983;SDS011;26714;51.332;12.406;2023-06-14T03:11:30;4.18;;;2.38;;
40983;SDS011;26714;51.332;12.406;2023-06-14T03:13:56;4.80;;;2.17;;
40983;SDS011;26714;51.332;12.406;2023-06-14T03:16:25;3.42;;;1.77;;
40983;SDS011;26714;51.332;12.406;2023-06-14T03:18:51;5.90;;;1.58;;
40983;SDS011;26714;51.332;12.406;2023-06-14T03:21:17;11.52;;;2.42;;
40983;SDS011;26714;51.332;12.406;2023-06-14T03:23:44;6.30;;;2.05;;
40983;SDS011;26714;51.332;12.406;2023-06-14T03:26:10;4.32;;;1.95;;
40983;SDS011;26714;51.332;12.406;2023-06-14T03:28:40;4.97;;;2.13;;
40983;SDS011;26714;51.332;12.406;2023-06-14T03:31:06;9.43;;;2.88;;
40983;SDS011;26714;51.332;12.406;2023-06-14T03:33:34;4.40;;;2.25;;
40983;SDS011;26714;51.332;12.406;2023-06-14T03:36:01;7.20;;;2.53;;
40983;SDS011;26714;51.332;12.406;2023-06-14T03:38:27;3.80;;;2.05;;
40983;SDS011;26714;51.332;12.406;2023-06-14T03:40:52;6.30;;;1.95;;
40983;SDS011;26714;51.332;12.406;2023-06-14T03:43:18;3.83;;;1.83;;
40983;SDS011;26714;51.332;12.406;2023-06-14T03:45:43;5.07;;;2.10;;
40983;SDS011;26714;51.332;12.406;2023-06-14T03:48:10;5.30;;;2.10;;
40983;SDS011;26714;51.332;12.406;2023-06-14T03:50:36;6.32;;;2.17;;
40983;SDS011;26714;51.332;12.406;2023-06-14T03:53:03;11.50;;;3.10;;
40983;SDS011;26714;51.332;12.406;2023-06-14T03:55:30;5.55;;;1.85;;
40983;SDS011;26714;51.332;12.406;2023-06-14T04:00:25;8.50;;;2.33;;
40983;SDS011;26714;51.332;12.406;2023-06-14T04:02:51;5.15;;;2.22;;
40983;SDS011;26714;51.332;12.406;2023-06-14T04:05:17;3.65;;;1.98;;
40983;SDS011;26714;51.332;12.406;2023-06-14T04:07:47;4.25;;;2.15;;
40983;SDS011;26714;51.332;12.406;2023-06-14T04:10:14;6.70;;;2.20;;
40983;SDS011;26714;51.332;12.406;2023-06-14T04:12:40;11.93;;;2.20;;
40983;SDS011;26714;51.332;12.406;2023-06-14T04:15:06;8.27;;;2.53;;
40983;SDS011;26714;51.332;12.406;2023-06-14T04:17:33;6.00;;;2.00;;
40983;SDS011;26714;51.332;12.406;2023-06-14T04:20:00;3.90;;;2.03;;
40983;SDS011;26714;51.332;12.406;2023-06-14T04:22:26;7.13;;;2.22;;
40983;SDS011;26714;51.332;12.406;2023-06-14T04:24:55;6.10;;;2.05;;
40983;SDS011;26714;51.332;12.406;2023-06-14T04:27:25;4.10;;;2.35;;
40983;SDS011;26714;51.332;12.406;2023-06-14T04:29:52;6.15;;;2.47;;
40983;SDS011;26714;51.332;12.406;2023-06-14T04:32:30;4.57;;;2.30;;
40983;SDS011;26714;51.332;12.406;2023-06-14T04:34:59;5.45;;;2.17;;
40983;SDS011;26714;51.332;12.406;2023-06-14T04:37:27;7.97;;;2.40;;
40983;SDS011;26714;51.332;12.406;2023-06-14T04:39:55;5.65;;;2.53;;
40983;SDS011;26714;51.332;12.406;2023-06-14T04:42:21;3.42;;;1.90;;
40983;SDS011;26714;51.332;12.406;2023-06-14T04:44:51;7.32;;;3.20;;
40983;SDS011;26714;51.332;12.406;2023-06-14T04:47:16;8.80;;;2.78;;
40983;SDS011;26714;51.332;12.406;2023-06-14T04:49:42;7.05;;;2.88;;
40983;SDS011;26714;51.332;12.406;2023-06-14T04:52:09;6.93;;;3.72;;
40983;SDS011;26714;51.332;12.406;2023-06-14T04:54:41;6.47;;;2.65;;
40983;SDS011;26714;51.332;12.406;2023-06-14T04:57:13;5.38;;;2.20;;
40983;SDS011;26714;51.332;12.406;2023-06-14T04:59:43;6.63;;;2.80;;
40983;SDS011;26714;51.332;12.406;2023-06-14T05:02:10;4.82;;;2.40;;
40983;SDS011;26714;51.332;12.406;2023-06-14T05:04:37;8.35;;;3.00;;
40983;SDS011;26714;51.332;12.406;2023-06-14T05:07:08;11.67;;;2.77;;
40983;SDS011;26714;51.332;12.406;2023-06-14T05:09:35;5.22;;;2.50;;
40983;SDS011;26714;51.332;12.406;2023-06-14T05:12:01;6.20;;;2.72;;
40983;SDS011;26714;51.332;12.406;2023-06-14T05:14:27;8.90;;;2.83;;
40983;SDS011;26714;51.332;12.406;2023-06-14T05:16:55;10.40;;;3.70;;
40983;SDS011;26714;51.332;12.406;2023-06-14T05:19:23;7.03;;;3.53;;
40983;SDS011;26714;51.332;12.406;2023-06-14T05:21:48;4.88;;;2.70;;
40983;SDS011;26714;51.332;12.406;2023-06-14T05:24:17;5.88;;;2.72;;
40983;SDS011;26714;51.332;12.406;2023-06-14T05:26:44;7.38;;;2.70;;
40983;SDS011;26714;51.332;12.406;2023-06-14T05:29:11;11.80;;;3.20;;
40983;SDS011;26714;51.332;12.406;2023-06-14T05:31:37;6.07;;;2.85;;
40983;SDS011;26714;51.332;12.406;2023-06-14T05:34:03;8.63;;;3.10;;
40983;SDS011;26714;51.332;12.406;2023-06-14T05:36:29;6.45;;;2.95;;
40983;SDS011;26714;51.332;12.406;2023-06-14T05:38:55;5.68;;;3.45;;
40983;SDS011;26714;51.332;12.406;2023-06-14T05:41:25;8.65;;;2.90;;
40983;SDS011;26714;51.332;12.406;2023-06-14T05:43:51;9.38;;;4.03;;
40983;SDS011;26714;51.332;12.406;2023-06-14T05:46:18;6.32;;;3.80;;
40983;SDS011;26714;51.332;12.406;2023-06-14T05:48:47;8.95;;;4.63;;
40983;SDS011;26714;51.332;12.406;2023-06-14T05:51:13;10.07;;;3.83;;
40983;SDS011;26714;51.332;12.406;2023-06-14T05:53:40;7.32;;;4.07;;
40983;SDS011;26714;51.332;12.406;2023-06-14T05:56:06;7.28;;;3.28;;
40983;SDS011;26714;51.332;12.406;2023-06-14T05:58:34;11.35;;;3.63;;
40983;SDS011;26714;51.332;12.406;2023-06-14T06:01:00;7.82;;;3.33;;
40983;SDS011;26714;51.332;12.406;2023-06-14T06:03:26;5.65;;;3.30;;
40983;SDS011;26714;51.332;12.406;2023-06-14T06:05:58;9.95;;;3.40;;
40983;SDS011;26714;51.332;12.406;2023-06-14T06:08:24;6.78;;;3.40;;
40983;SDS011;26714;51.332;12.406;2023-06-14T06:10:49;7.00;;;3.80;;
40983;SDS011;26714;51.332;12.406;2023-06-14T06:13:15;7.35;;;4.43;;
40983;SDS011;26714;51.332;12.406;2023-06-14T06:15:42;7.93;;;3.95;;
40983;SDS011;26714;51.332;12.406;2023-06-14T06:18:08;9.90;;;4.50;;
40983;SDS011;26714;51.332;12.406;2023-06-14T06:20:34;10.57;;;3.80;;
40983;SDS011;26714;51.332;12.406;2023-06-14T06:23:01;6.65;;;3.80;;
40983;SDS011;26714;51.332;12.406;2023-06-14T06:25:27;7.00;;;3.53;;
40983;SDS011;26714;51.332;12.406;2023-06-14T06:27:54;5.95;;;3.45;;
40983;SDS011;26714;51.332;12.406;2023-06-14T06:30:21;8.70;;;5.15;;
40983;SDS011;26714;51.332;12.406;2023-06-14T06:32:47;9.25;;;3.80;;
40983;SDS011;26714;51.332;12.406;2023-06-14T06:35:13;7.47;;;3.58;;
40983;SDS011;26714;51.332;12.406;2023-06-14T06:37:39;6.22;;;3.72;;
40983;SDS011;26714;51.332;12.406;2023-06-14T06:40:05;6.95;;;3.55;;
40983;SDS011;26714;51.332;12.406;2023-06-14T06:42:34;8.98;;;3.47;;
40983;SDS011;26714;51.332;12.406;2023-06-14T06:45:03;7.43;;;3.50;;
40983;SDS011;26714;51.332;12.406;2023-06-14T06:47:30;7.55;;;3.60;;
40983;SDS011;26714;51.332;12.406;2023-06-14T06:49:57;7.60;;;3.65;;
40983;SDS011;26714;51.332;12.406;2023-06-14T06:52:23;10.65;;;4.22;;
40983;SDS011;26714;51.332;12.406;2023-06-14T06:54:48;6.13;;;3.33;;
40983;SDS011;26714;51.332;12.406;2023-06-14T06:57:16;7.53;;;3.67;;
40983;SDS011;26714;51.332;12.406;2023-06-14T06:59:41;6.22;;;3.20;;
40983;SDS011;26714;51.332;12.406;2023-06-14T07:02:07;6.40;;;3.10;;
40983;SDS011;26714;51.332;12.406;2023-06-14T07:04:33;5.25;;;3.20;;
40983;SDS011;26714;51.332;12.406;2023-06-14T07:06:58;8.93;;;3.80;;
40983;SDS011;26714;51.332;12.406;2023-06-14T07:09:24;5.47;;;3.05;;
40983;SDS011;26714;51.332;12.406;2023-06-14T07:11:50;11.50;;;3.70;;
40983;SDS011;26714;51.332;12.406;2023-06-14T07:14:16;4.93;;;3.10;;
40983;SDS011;26714;51.332;12.406;2023-06-14T07:16:41;7.28;;;3.72;;
40983;SDS011;26714;51.332;12.406;2023-06-14T07:19:08;6.30;;;2.80;;
40983;SDS011;26714;51.332;12.406;2023-06-14T07:21:34;6.50;;;3.10;;
40983;SDS011;26714;51.332;12.406;2023-06-14T07:24:03;5.38;;;3.00;;
40983;SDS011;26714;51.332;12.406;2023-06-14T07:26:29;8.15;;;2.90;;
40983;SDS011;26714;51.332;12.406;2023-06-14T07:28:54;4.32;;;2.90;;
40983;SDS011;26714;51.332;12.406;2023-06-14T07:31:20;4.78;;;2.35;;
40983;SDS011;26714;51.332;12.406;2023-06-14T07:33:46;6.43;;;2.80;;
40983;SDS011;26714;51.332;12.406;2023-06-14T07:36:12;6.70;;;3.53;;
40983;SDS011;26714;51.332;12.406;2023-06-14T07:38:38;9.60;;;2.85;;
40983;SDS011;26714;51.332;12.406;2023-06-14T07:41:06;4.83;;;2.73;;
40983;SDS011;26714;51.332;12.406;2023-06-14T07:43:32;4.95;;;2.90;;
40983;SDS011;26714;51.332;12.406;2023-06-14T07:45:58;4.70;;;2.53;;
40983;SDS011;26714;51.332;12.406;2023-06-14T07:48:24;4.72;;;2.80;;
40983;SDS011;26714;51.332;12.406;2023-06-14T07:50:49;5.05;;;2.80;;
40983;SDS011;26714;51.332;12.406;2023-06-14T07:53:15;3.53;;;2.53;;
40983;SDS011;26714;51.332;12.406;2023-06-14T07:55:41;21.77;;;4.68;;
40983;SDS011;26714;51.332;12.406;2023-06-14T07:58:08;6.10;;;3.15;;
40983;SDS011;26714;51.332;12.406;2023-06-14T08:00:34;5.88;;;3.10;;
40983;SDS011;26714;51.332;12.406;2023-06-14T08:03:01;6.32;;;2.92;;
40983;SDS011;26714;51.332;12.406;2023-06-14T08:05:27;4.20;;;2.42;;
40983;SDS011;26714;51.332;12.406;2023-06-14T08:07:53;5.55;;;2.70;;
40983;SDS011;26714;51.332;12.406;2023-06-14T08:10:19;5.25;;;2.75;;
40983;SDS011;26714;51.332;12.406;2023-06-14T08:12:45;4.85;;;2.80;;
40983;SDS011;26714;51.332;12.406;2023-06-14T08:15:11;4.72;;;3.08;;
40983;SDS011;26714;51.332;12.406;2023-06-14T08:17:36;5.93;;;3.10;;
40983;SDS011;26714;51.332;12.406;2023-06-14T08:24:36;5.15;;;2.35;;
40983;SDS011;26714;51.332;12.406;2023-06-14T08:27:28;6.32;;;2.78;;
40983;SDS011;26714;51.332;12.406;2023-06-14T08:33:42;6.57;;;3.00;;
40983;SDS011;26714;51.332;12.406;2023-06-14T08:45:36;9.65;;;3.03;;
40983;SDS011;26714;51.332;12.406;2023-06-14T08:48:01;4.55;;;2.90;;
40983;SDS011;26714;51.332;12.406;2023-06-14T08:53:28;5.03;;;2.85;;
40983;SDS011;26714;51.332;12.406;2023-06-14T08:56:01;4.45;;;2.90;;
40983;SDS011;26714;51.332;12.406;2023-06-14T08:58:34;5.00;;;2.65;;
40983;SDS011;26714;51.332;12.406;2023-06-14T09:01:23;4.20;;;2.30;;
40983;SDS011;26714;51.332;12.406;2023-06-14T09:07:40;4.05;;;2.00;;
40983;SDS011;26714;51.332;12.406;2023-06-14T09:10:30;4.45;;;2.10;;
40983;SDS011;26714;51.332;12.406;2023-06-14T09:15:25;4.03;;;2.70;;
40983;SDS011;26714;51.332;12.406;2023-06-14T09:17:51;4.13;;;2.30;;
40983;SDS011;26714;51.332;12.406;2023-06-14T09:20:17;4.32;;;2.33;;
40983;SDS011;26714;51.332;12.406;2023-06-14T09:22:45;4.40;;;2.08;;
40983;SDS011;26714;51.332;12.406;2023-06-14T09:25:11;7.90;;;2.25;;
40983;SDS011;26714;51.332;12.406;2023-06-14T09:27:46;6.50;;;2.42;;
40983;SDS011;26714;51.332;12.406;2023-06-14T09:30:12;7.43;;;2.55;;
40983;SDS011;26714;51.332;12.406;2023-06-14T09:32:39;5.53;;;2.28;;
40983;SDS011;26714;51.332;12.406;2023-06-14T09:35:08;4.75;;;2.10;;
40983;SDS011;26714;51.332;12.406;2023-06-14T09:37:35;6.32;;;2.75;;
40983;SDS011;26714;51.332;12.406;2023-06-14T09:40:01;5.07;;;2.15;;
40983;SDS011;26714;51.332;12.406;2023-06-14T09:42:29;5.65;;;2.58;;
40983;SDS011;26714;51.332;12.406;2023-06-14T09:44:55;4.57;;;2.22;;
40983;SDS011;26714;51.332;12.406;2023-06-14T09:47:22;4.68;;;2.30;;
40983;SDS011;26714;51.332;12.406;2023-06-14T09:49:48;3.63;;;2.00;;
40983;SDS011;26714;51.332;12.406;2023-06-14T09:52:15;5.93;;;2.30;;
40983;SDS011;26714;51.332;12.406;2023-06-14T09:54:41;4.88;;;2.20;;
40983;SDS011;26714;51.332;12.406;2023-06-14T09:57:11;5.68;;;2.35;;
40983;SDS011;26714;51.332;12.406;2023-06-14T09:59:40;7.38;;;2.17;;
40983;SDS011;26714;51.332;12.406;2023-06-14T10:02:09;4.88;;;2.30;;
40983;SDS011;26714;51.332;12.406;2023-06-14T10:04:36;6.07;;;2.17;;
40983;SDS011;26714;51.332;12.406;2023-06-14T10:07:02;2.85;;;1.85;;
40983;SDS011;26714;51.332;12.406;2023-06-14T10:09:29;4.57;;;2.45;;
40983;SDS011;26714;51.332;12.406;2023-06-14T10:11:55;5.78;;;2.28;;
40983;SDS011;26714;51.332;12.406;2023-06-14T10:14:21;6.05;;;2.03;;
40983;SDS011;26714;51.332;12.406;2023-06-14T10:19:18;4.25;;;2.30;;
40983;SDS011;26714;51.332;12.406;2023-06-14T10:24:34;7.43;;;2.67;;
40983;SDS011;26714;51.332;12.406;2023-06-14T10:27:03;3.58;;;1.80;;
40983;SDS011;26714;51.332;12.406;2023-06-14T10:30:01;4.43;;;2.03;;
40983;SDS011;26714;51.332;12.406;2023-06-14T10:32:27;4.55;;;1.92;;
40983;SDS011;26714;51.332;12.406;2023-06-14T10:34:57;4.57;;;2.38;;
40983;SDS011;26714;51.332;12.406;2023-06-14T10:37:23;6.70;;;2.70;;
40983;SDS011;26714;51.332;12.406;2023-06-14T10:39:50;5.43;;;2.20;;
40983;SDS011;26714;51.332;12.406;2023-06-14T10:42:16;6.80;;;2.30;;
40983;SDS011;26714;51.332;12.406;2023-06-14T10:44:49;5.05;;;2.70;;
40983;SDS011;26714;51.332;12.406;2023-06-14T10:47:25;5.53;;;2.33;;
40983;SDS011;26714;51.332;12.406;2023-06-14T10:49:52;4.38;;;2.00;;
40983;SDS011;26714;51.332;12.406;2023-06-14T10:52:20;6.63;;;2.60;;
40983;SDS011;26714;51.332;12.406;2023-06-14T10:55:02;7.05;;;3.60;;
40983;SDS011;26714;51.332;12.406;2023-06-14T10:57:29;7.05;;;3.53;;
40983;SDS011;26714;51.332;12.406;2023-06-14T10:59:57;7.95;;;3.17;;
40983;SDS011;26714;51.332;12.406;2023-06-14T11:04:54;6.38;;;2.35;;
40983;SDS011;26714;51.332;12.406;2023-06-14T11:12:19;4.40;;;2.25;;
40983;SDS011;26714;51.332;12.406;2023-06-14T11:14:46;6.80;;;2.13;;
40983;SDS011;26714;51.332;12.406;2023-06-14T11:17:13;4.03;;;2.40;;
40983;SDS011;26714;51.332;12.406;2023-06-14T11:19:38;5.57;;;2.72;;
40983;SDS011;26714;51.332;12.406;2023-06-14T11:22:04;5.13;;;1.92;;
40983;SDS011;26714;51.332;12.406;2023-06-14T11:24:29;3.35;;;1.80;;
40983;SDS011;26714;51.332;12.406;2023-06-14T11:26:57;5.47;;;1.92;;
40983;SDS011;26714;51.332;12.406;2023-06-14T11:29:23;3.40;;;2.00;;
40983;SDS011;26714;51.332;12.406;2023-06-14T11:31:48;3.88;;;1.77;;
40983;SDS011;26714;51.332;12.406;2023-06-14T11:34:14;3.78;;;2.38;;
40983;SDS011;26714;51.332;12.406;2023-06-14T11:36:40;3.55;;;1.58;;
40983;SDS011;26714;51.332;12.406;2023-06-14T11:39:07;3.28;;;1.80;;
40983;SDS011;26714;51.332;12.406;2023-06-14T11:41:36;2.53;;;1.33;;
40983;SDS011;26714;51.332;12.406;2023-06-14T11:44:02;5.07;;;1.77;;
40983;SDS011;26714;51.332;12.406;2023-06-14T11:46:28;3.75;;;2.05;;
40983;SDS011;26714;51.332;12.406;2023-06-14T11:48:53;4.75;;;2.00;;
40983;SDS011;26714;51.332;12.406;2023-06-14T11:51:19;3.92;;;2.10;;
40983;SDS011;26714;51.332;12.406;2023-06-14T11:53:46;5.80;;;1.67;;
40983;SDS011;26714;51.332;12.406;2023-06-14T11:56:11;4.72;;;1.80;;
40983;SDS011;26714;51.332;12.406;2023-06-14T11:58:37;2.38;;;1.60;;
40983;SDS011;26714;51.332;12.406;2023-06-14T12:01:03;2.75;;;1.60;;
40983;SDS011;26714;51.332;12.406;2023-06-14T12:03:28;3.60;;;1.85;;
40983;SDS011;26714;51.332;12.406;2023-06-14T12:06:07;5.15;;;1.75;;
40983;SDS011;26714;51.332;12.406;2023-06-14T12:08:34;2.28;;;1.48;;
40983;SDS011;26714;51.332;12.406;2023-06-14T12:11:04;4.78;;;2.03;;
40983;SDS011;26714;51.332;12.406;2023-06-14T12:13:29;3.53;;;1.60;;
40983;SDS011;26714;51.332;12.406;2023-06-14T12:15:56;2.88;;;1.50;;
40983;SDS011;26714;51.332;12.406;2023-06-14T12:18:42;7.85;;;2.95;;
40983;SDS011;26714;51.332;12.406;2023-06-14T12:21:09;4.30;;;2.15;;
40983;SDS011;26714;51.332;12.406;2023-06-14T12:23:39;4.93;;;2.05;;
40983;SDS011;26714;51.332;12.406;2023-06-14T12:26:04;2.63;;;1.65;;
40983;SDS011;26714;51.332;12.406;2023-06-14T12:28:31;2.75;;;1.58;;
40983;SDS011;26714;51.332;12.406;2023-06-14T12:30:56;4.75;;;1.70;;
40983;SDS011;26714;51.332;12.406;2023-06-14T12:33:24;4.37;;;2.13;;
40983;SDS011;26714;51.332;12.406;2023-06-14T12:35:50;3.72;;;2.20;;
40983;SDS011;26714;51.332;12.406;2023-06-14T12:38:15;4.45;;;2.13;;
40983;SDS011;26714;51.332;12.406;2023-06-14T12:40:41;4.68;;;1.90;;
40983;SDS011;26714;51.332;12.406;2023-06-14T12:43:07;3.63;;;2.20;;
40983;SDS011;26714;51.332;12.406;2023-06-14T12:45:33;4.65;;;2.38;;
40983;SDS011;26714;51.332;12.406;2023-06-14T12:47:58;3.63;;;2.03;;
40983;SDS011;26714;51.332;12.406;2023-06-14T12:50:24;3.45;;;2.03;;
40983;SDS011;26714;51.332;12.406;2023-06-14T12:52:49;5.18;;;1.92;;
40983;SDS011;26714;51.332;12.406;2023-06-14T12:55:15;3.50;;;2.30;;
40983;SDS011;26714;51.332;12.406;2023-06-14T12:57:40;6.47;;;2.28;;
40983;SDS011;26714;51.332;12.406;2023-06-14T13:00:06;4.75;;;2.53;;
40983;SDS011;26714;51.332;12.406;2023-06-14T13:02:32;4.72;;;2.00;;
40983;SDS011;26714;51.332;12.406;2023-06-14T13:04:58;4.65;;;2.30;;
40983;SDS011;26714;51.332;12.406;2023-06-14T13:07:29;5.75;;;2.40;;
40983;SDS011;26714;51.332;12.406;2023-06-14T13:09:54;5.35;;;2.13;;
40983;SDS011;26714;51.332;12.406;2023-06-14T13:12:20;5.60;;;2.80;;
40983;SDS011;26714;51.332;12.406;2023-06-14T13:14:45;4.47;;;2.00;;
40983;SDS011;26714;51.332;12.406;2023-06-14T13:17:11;5.38;;;2.40;;
40983;SDS011;26714;51.332;12.406;2023-06-14T13:19:36;6.10;;;2.30;;
40983;SDS011;26714;51.332;12.406;2023-06-14T13:22:02;5.38;;;2.80;;
40983;SDS011;26714;51.332;12.406;2023-06-14T13:24:28;7.53;;;2.65;;
40983;SDS011;26714;51.332;12.406;2023-06-14T13:26:55;9.27;;;3.88;;
40983;SDS011;26714;51.332;12.406;2023-06-14T13:29:20;6.68;;;3.13;;
40983;SDS011;26714;51.332;12.406;2023-06-14T13:31:46;6.13;;;2.40;;
40983;SDS011;26714;51.332;12.406;2023-06-14T13:34:11;8.15;;;2.80;;
40983;SDS011;26714;51.332;12.406;2023-06-14T13:36:37;5.25;;;2.75;;
40983;SDS011;26714;51.332;12.406;2023-06-14T13:39:02;8.68;;;2.70;;
40983;SDS011;26714;51.332;12.406;2023-06-14T13:41:28;6.07;;;2.30;;
40983;SDS011;26714;51.332;12.406;2023-06-14T13:43:59;7.50;;;2.47;;
40983;SDS011;26714;51.332;12.406;2023-06-14T13:46:25;5.55;;;2.42;;
40983;SDS011;26714;51.332;12.406;2023-06-14T13:48:50;7.32;;;2.58;;
40983;SDS011;26714;51.332;12.406;2023-06-14T13:51:17;6.53;;;2.60;;
40983;SDS011;26714;51.332;12.406;2023-06-14T13:53:50;4.70;;;2.40;;
40983;SDS011;26714;51.332;12.406;2023-06-14T13:56:16;4.28;;;2.72;;
40983;SDS011;26714;51.332;12.406;2023-06-14T13:58:41;8.23;;;3.08;;
40983;SDS011;26714;51.332;12.406;2023-06-14T14:01:07;4.60;;;2.50;;
40983;SDS011;26714;51.332;12.406;2023-06-14T14:03:33;6.57;;;2.85;;
40983;SDS011;26714;51.332;12.406;2023-06-14T14:06:00;6.22;;;3.17;;
40983;SDS011;26714;51.332;12.406;2023-06-14T14:08:26;6.75;;;2.90;;
40983;SDS011;26714;51.332;12.406;2023-06-14T14:10:51;4.90;;;2.78;;
40983;SDS011;26714;51.332;12.406;2023-06-14T14:13:17;7.07;;;2.70;;
40983;SDS011;26714;51.332;12.406;2023-06-14T14:15:42;5.97;;;2.58;;
40983;SDS011;26714;51.332;12.406;2023-06-14T14:18:08;3.97;;;2.40;;
40983;SDS011;26714;51.332;12.406;2023-06-14T14:20:34;6.85;;;4.07;;
40983;SDS011;26714;51.332;12.406;2023-06-14T14:23:00;5.85;;;2.40;;
40983;SDS011;26714;51.332;12.406;2023-06-14T14:25:25;4.65;;;2.45;;
40983;SDS011;26714;51.332;12.406;2023-06-14T14:27:51;5.35;;;2.25;;
40983;SDS011;26714;51.332;12.406;2023-06-14T14:30:17;4.55;;;3.17;;
40983;SDS011;26714;51.332;12.406;2023-06-14T14:32:44;3.80;;;2.33;;
40983;SDS011;26714;51.332;12.406;2023-06-14T14:35:10;6.53;;;2.85;;
40983;SDS011;26714;51.332;12.406;2023-06-14T14:37:37;4.87;;;2.37;;
40983;SDS011;26714;51.332;12.406;2023-06-14T14:40:03;5.15;;;2.25;;
40983;SDS011;26714;51.332;12.406;2023-06-14T14:42:29;3.80;;;2.53;;
40983;SDS011;26714;51.332;12.406;2023-06-14T14:44:54;6.07;;;2.85;;
40983;SDS011;26714;51.332;12.406;2023-06-14T14:47:20;9.10;;;3.15;;
40983;SDS011;26714;51.332;12.406;2023-06-14T14:49:45;4.80;;;2.70;;
40983;SDS011;26714;51.332;12.406;2023-06-14T14:52:11;3.85;;;2.10;;
40983;SDS011;26714;51.332;12.406;2023-06-14T14:54:39;5.47;;;2.28;;
40983;SDS011;26714;51.332;12.406;2023-06-14T14:57:04;5.30;;;2.72;;
40983;SDS011;26714;51.332;12.406;2023-06-14T14:59:30;4.45;;;2.30;;
40983;SDS011;26714;51.332;12.406;2023-06-14T15:01:56;8.68;;;2.90;;
40983;SDS011;26714;51.332;12.406;2023-06-14T15:04:21;5.65;;;2.70;;
40983;SDS011;26714;51.332;12.406;2023-06-14T15:06:47;6.88;;;3.65;;
40983;SDS011;26714;51.332;12.406;2023-06-14T15:09:12;4.15;;;2.40;;
40983;SDS011;26714;51.332;12.406;2023-06-14T15:11:38;6.25;;;2.42;;
40983;SDS011;26714;51.332;12.406;2023-06-14T15:14:03;4.68;;;2.40;;
40983;SDS011;26714;51.332;12.406;2023-06-14T15:16:29;4.32;;;2.30;;